San Diego, California
Current Conditions -  °F | °C
As of 10:31 PM on Saturday 25 Oct 2014 (Local Time) from KSAN Reporting Station
Broken Clouds Broken Clouds  
Wind Chill: 70°   Ceiling: 1900
Heat Index: 70°   Visibility: 10mi
Dew Point: 63°   Wind: 0mph
Humidity: 78%   Direction: NA
Pressure: 30.04"   Gusts: NA
Location:  32.72°N, 117.16°W
Report Text: KSAN 260531Z 00000KT 10SM BKN019 21/17 A3004 RMK AO2 $
Loading
Personal Weather Stations






























Interactive Weather Map New forecast layout! Learn more

10-Day Weather Forecast

Advertisements
Track Severe Weather on mobile